Time;durP1;ratioP1;P1;durP2;ratioP2;P2;SDS_P1;SDS_P2;PMS_P1;PMS_P2;Temp;Humidity;BMP_temperature;BMP_pressure;BME280_temperature;BME280_humidity;BME280_pressure;Samples;Min_cycle;Max_cycle;Signal;HPM_P1;HPM_P2
2023/06/11 00:04:05;;;;;;;;;;;;;;;15.36;100.00;95567.38;10497880;28;2000;-72
2023/06/11 00:09:07;;;;;;;;;;;;;;;15.31;100.00;95572.91;10497543;28;1913;-72
2023/06/11 00:14:10;;;;;;;;;;;;;;;15.26;100.00;95564.91;10492383;28;1969;-71
2023/06/11 00:19:12;;;;;;;;;;;;;;;15.29;100.00;95571.63;10499962;28;2007;-71
2023/06/11 00:24:15;;;;;;;;;;;;;;;15.25;100.00;95562.53;10496242;28;1999;-72
2023/06/11 00:29:18;;;;;;;;;;;;;;;15.23;100.00;95559.34;10503163;28;2136;-72
2023/06/11 00:34:20;;;;;;;;;;;;;;;15.17;100.00;95561.34;10498646;28;1902;-71
2023/06/11 00:39:23;;;;;;;;;;;;;;;15.16;100.00;95561.66;10493167;28;1918;-72
2023/06/11 00:44:25;;;;;;;;;;;;;;;14.99;100.00;95557.72;10503578;28;4849;-71
2023/06/11 00:49:28;;;;;;;;;;;;;;;14.98;100.00;95566.94;10502418;28;2505;-72
2023/06/11 00:54:32;;;;;;;;;;;;;;;14.93;100.00;95569.75;10499555;28;2054;-69
2023/06/11 00:59:35;;;;;;;;;;;;;;;14.81;100.00;95561.38;10498195;28;1934;-72
2023/06/11 01:04:39;;;;;;;;;;;;;;;14.82;100.00;95562.97;10492072;28;2090;-71
2023/06/11 01:09:42;;;;;;;;;;;;;;;14.75;100.00;95568.81;10507021;28;1920;-72
2023/06/11 01:14:44;;;;;;;;;;;;;;;14.77;100.00;95568.53;10499587;28;2078;-72
2023/06/11 01:19:46;;;;;;;;;;;;;;;14.67;100.00;95574.16;10503059;28;2035;-71
2023/06/11 01:24:51;;;;;;;;;;;;;;;14.66;100.00;95584.19;10498292;28;1957;-71
2023/06/11 01:29:53;;;;;;;;;;;;;;;14.61;100.00;95584.28;10508073;28;1956;-71
2023/06/11 01:34:55;;;;;;;;;;;;;;;14.58;100.00;95583.00;10499861;28;2043;-71
2023/06/11 01:39:58;;;;;;;;;;;;;;;14.56;100.00;95578.97;10502622;28;4737;-72
2023/06/11 01:45:00;;;;;;;;;;;;;;;14.57;100.00;95580.59;10500462;28;2283;-71
2023/06/11 01:50:03;;;;;;;;;;;;;;;14.42;100.00;95573.56;10503237;28;1990;-71
2023/06/11 01:55:06;;;;;;;;;;;;;;;14.42;100.00;95588.97;10509499;28;1991;-68
2023/06/11 02:00:10;;;;;;;;;;;;;;;14.39;100.00;95595.81;10499470;28;1996;-72
2023/06/11 02:05:12;;;;;;;;;;;;;;;14.38;100.00;95590.69;10500237;28;1973;-70
2023/06/11 02:10:15;;;;;;;;;;;;;;;14.25;100.00;95589.59;10495409;28;1991;-71
2023/06/11 02:15:17;;;;;;;;;;;;;;;14.29;100.00;95590.59;10502280;28;2004;-71
2023/06/11 02:20:20;;;;;;;;;;;;;;;14.25;100.00;95587.72;10496236;28;2059;-70
2023/06/11 02:25:22;;;;;;;;;;;;;;;14.25;100.00;95595.00;10500823;28;2061;-72
2023/06/11 02:30:25;;;;;;;;;;;;;;;14.23;100.00;95600.72;10504063;28;1970;-72
2023/06/11 02:35:27;;;;;;;;;;;;;;;14.16;100.00;95594.09;10494996;28;1999;-72
2023/06/11 02:40:29;;;;;;;;;;;;;;;14.14;100.00;95599.81;10491842;28;4729;-71
2023/06/11 02:45:32;;;;;;;;;;;;;;;14.12;100.00;95603.91;10496429;28;1924;-71
2023/06/11 02:50:34;;;;;;;;;;;;;;;14.11;100.00;95610.41;10497373;28;2078;-71
2023/06/11 02:55:37;;;;;;;;;;;;;;;14.15;100.00;95606.81;10497128;28;1991;-72
2023/06/11 03:00:39;;;;;;;;;;;;;;;14.11;100.00;95610.41;10502765;28;1964;-71
2023/06/11 03:05:42;;;;;;;;;;;;;;;14.04;100.00;95610.81;10505052;28;1914;-71
2023/06/11 03:10:44;;;;;;;;;;;;;;;14.05;100.00;95618.63;10500080;28;1909;-71
2023/06/11 03:15:46;;;;;;;;;;;;;;;14.01;100.00;95623.03;10498188;28;2023;-71
2023/06/11 03:20:49;;;;;;;;;;;;;;;13.96;100.00;95612.31;10503603;28;1938;-71
2023/06/11 03:25:51;;;;;;;;;;;;;;;13.98;100.00;95618.22;10521851;28;1899;-71
2023/06/11 03:30:54;;;;;;;;;;;;;;;14.06;100.00;95624.84;10517111;28;1960;-71
2023/06/11 03:35:57;;;;;;;;;;;;;;;14.06;100.00;95631.06;10518188;28;2357;-72
2023/06/11 03:40:59;;;;;;;;;;;;;;;14.20;100.00;95624.84;10503850;28;2042;-72
2023/06/11 03:46:02;;;;;;;;;;;;;;;14.32;100.00;95625.16;10503504;28;2082;-71
2023/06/11 03:51:04;;;;;;;;;;;;;;;14.46;100.00;95617.03;10497512;28;1945;-70
2023/06/11 03:56:07;;;;;;;;;;;;;;;14.65;100.00;95616.94;10494468;28;2005;-71
2023/06/11 04:01:09;;;;;;;;;;;;;;;14.78;100.00;95624.25;10496643;28;2010;-71
2023/06/11 04:06:12;;;;;;;;;;;;;;;14.72;100.00;95620.03;10507215;28;1963;-71
2023/06/11 04:11:14;;;;;;;;;;;;;;;15.03;100.00;95629.09;10501794;28;2070;-72
2023/06/11 04:16:17;;;;;;;;;;;;;;;15.09;100.00;95633.28;10493518;28;1981;-71
2023/06/11 04:21:19;;;;;;;;;;;;;;;15.42;100.00;95624.94;10496368;28;2106;-72
2023/06/11 04:26:23;;;;;;;;;;;;;;;15.47;100.00;95627.53;10482964;28;2110;-71
2023/06/11 04:31:26;;;;;;;;;;;;;;;15.63;100.00;95636.91;10498255;28;2020;-71
2023/06/11 04:36:29;;;;;;;;;;;;;;;15.80;100.00;95632.72;10495175;28;1964;-71
2023/06/11 04:41:32;;;;;;;;;;;;;;;16.09;100.00;95626.78;10496949;28;4701;-71
2023/06/11 04:46:34;;;;;;;;;;;;;;;16.20;100.00;95626.22;10500208;28;1941;-71
2023/06/11 04:51:40;;;;;;;;;;;;;;;16.44;100.00;95625.03;10505280;28;1956;-71
2023/06/11 04:56:43;;;;;;;;;;;;;;;16.27;100.00;95624.97;10505521;28;2063;-70
2023/06/11 05:01:47;;;;;;;;;;;;;;;16.47;100.00;95618.97;10499629;28;2051;-70
2023/06/11 05:06:50;;;;;;;;;;;;;;;16.71;100.00;95616.66;10502756;28;1955;-71
2023/06/11 05:11:52;;;;;;;;;;;;;;;16.67;100.00;95623.84;10497111;28;2138;-71
2023/06/11 05:16:54;;;;;;;;;;;;;;;16.92;100.00;95624.22;10504026;28;1977;-71
2023/06/11 05:21:57;;;;;;;;;;;;;;;17.24;100.00;95614.81;10503638;28;1950;-70
2023/06/11 05:27:00;;;;;;;;;;;;;;;17.56;100.00;95627.13;10518875;28;2557;-70
2023/06/11 05:32:02;;;;;;;;;;;;;;;17.44;100.00;95618.81;10505716;28;2007;-70
2023/06/11 05:37:05;;;;;;;;;;;;;;;17.76;100.00;95621.03;10497700;28;2020;-70
2023/06/11 05:42:07;;;;;;;;;;;;;;;17.83;100.00;95621.34;10500877;28;4681;-71
2023/06/11 05:47:09;;;;;;;;;;;;;;;18.42;100.00;95619.88;10502339;28;1900;-72
2023/06/11 05:52:12;;;;;;;;;;;;;;;18.36;100.00;95614.59;10497007;28;2199;-72
2023/06/11 05:57:14;;;;;;;;;;;;;;;18.03;100.00;95613.63;10505436;28;1977;-71
2023/06/11 06:02:17;;;;;;;;;;;;;;;17.86;100.00;95614.44;10502606;28;1994;-71
2023/06/11 06:07:19;;;;;;;;;;;;;;;18.19;100.00;95617.38;10497365;28;1934;-72
2023/06/11 06:12:22;;;;;;;;;;;;;;;18.44;100.00;95620.34;10504027;28;2011;-72
2023/06/11 06:17:24;;;;;;;;;;;;;;;18.61;100.00;95615.59;10496129;28;2034;-72
2023/06/11 06:22:27;;;;;;;;;;;;;;;18.65;100.00;95618.50;10497615;28;2283;-71
2023/06/11 06:27:30;;;;;;;;;;;;;;;18.76;100.00;95617.00;10505225;28;1878;-72
2023/06/11 06:32:32;;;;;;;;;;;;;;;19.04;100.00;95621.97;10496864;28;2126;-72
2023/06/11 06:37:35;;;;;;;;;;;;;;;18.73;100.00;95630.47;10495652;28;1971;-71
2023/06/11 06:42:37;;;;;;;;;;;;;;;19.25;100.00;95622.75;10492270;28;4802;-72
2023/06/11 06:47:40;;;;;;;;;;;;;;;19.47;100.00;95620.81;10498857;28;1952;-72
2023/06/11 06:52:42;;;;;;;;;;;;;;;19.38;100.00;95632.59;10496021;28;1901;-72
2023/06/11 06:57:45;;;;;;;;;;;;;;;19.57;100.00;95640.28;10498863;28;2083;-70
2023/06/11 07:02:47;;;;;;;;;;;;;;;20.20;100.00;95627.34;10498862;28;1937;-72
2023/06/11 07:07:50;;;;;;;;;;;;;;;19.97;100.00;95632.41;10499181;28;1936;-71
2023/06/11 07:12:52;;;;;;;;;;;;;;;19.69;100.00;95634.94;10500882;28;1977;-71
2023/06/11 07:17:55;;;;;;;;;;;;;;;19.90;100.00;95629.41;10503464;28;1894;-72
2023/06/11 07:22:59;;;;;;;;;;;;;;;19.68;100.00;95633.34;10505226;28;2209;-72
2023/06/11 07:28:01;;;;;;;;;;;;;;;19.79;100.00;95638.38;10511453;28;1913;-72
2023/06/11 07:33:03;;;;;;;;;;;;;;;20.43;100.00;95638.66;10500266;28;1910;-71
2023/06/11 07:38:06;;;;;;;;;;;;;;;21.71;100.00;95632.84;10507022;28;1950;-71
2023/06/11 07:43:08;;;;;;;;;;;;;;;21.28;100.00;95637.84;10500762;28;4856;-71
2023/06/11 07:48:11;;;;;;;;;;;;;;;20.30;100.00;95638.97;10508325;28;1883;-72
2023/06/11 07:53:14;;;;;;;;;;;;;;;20.42;100.00;95628.03;10507926;28;1880;-72
2023/06/11 07:58:17;;;;;;;;;;;;;;;20.92;100.00;95646.06;10504818;28;1935;-70
2023/06/11 08:03:19;;;;;;;;;;;;;;;20.19;100.00;95635.88;10507401;28;1988;-71
2023/06/11 08:08:22;;;;;;;;;;;;;;;21.35;100.00;95625.53;10494782;28;1948;-71
2023/06/11 08:13:25;;;;;;;;;;;;;;;21.35;100.00;95636.47;10502007;28;1898;-72
2023/06/11 08:18:27;;;;;;;;;;;;;;;20.78;100.00;95624.56;10506207;28;2242;-73
2023/06/11 08:23:29;;;;;;;;;;;;;;;20.82;100.00;95628.22;10509475;28;1873;-71
2023/06/11 08:28:32;;;;;;;;;;;;;;;20.85;100.00;95622.06;10507105;28;1904;-72
2023/06/11 08:33:34;;;;;;;;;;;;;;;21.49;100.00;95631.41;10506927;28;1891;-72
2023/06/11 08:38:37;;;;;;;;;;;;;;;21.65;100.00;95623.28;10504181;28;1960;-70
2023/06/11 08:43:40;;;;;;;;;;;;;;;22.39;100.00;95629.97;10505185;28;4671;-69
2023/06/11 08:48:42;;;;;;;;;;;;;;;23.31;100.00;95619.63;10504776;28;1967;-71
2023/06/11 08:53:49;;;;;;;;;;;;;;;21.61;100.00;95609.50;10486137;28;1869;-71
2023/06/11 08:58:52;;;;;;;;;;;;;;;21.80;100.00;95620.56;10495653;28;2073;-71
2023/06/11 09:03:55;;;;;;;;;;;;;;;21.17;100.00;95635.91;10504290;28;1800;-71
2023/06/11 09:08:58;;;;;;;;;;;;;;;21.52;100.00;95617.06;10500848;28;1845;-70
2023/06/11 09:14:01;;;;;;;;;;;;;;;21.30;100.00;95618.38;10502853;28;2365;-72
2023/06/11 09:19:03;;;;;;;;;;;;;;;21.97;100.00;95624.94;10496999;28;1971;-72
2023/06/11 09:24:05;;;;;;;;;;;;;;;21.75;100.00;95622.75;10506219;28;1847;-70
2023/06/11 09:29:08;;;;;;;;;;;;;;;22.65;100.00;95624.78;10508692;28;2188;-72
2023/06/11 09:34:12;;;;;;;;;;;;;;;23.02;100.00;95627.22;10510865;28;1913;-69
2023/06/11 09:39:16;;;;;;;;;;;;;;;22.22;100.00;95635.81;10503643;28;2048;-69
2023/06/11 09:44:18;;;;;;;;;;;;;;;22.39;100.00;95627.22;10510935;28;4745;-70
2023/06/11 09:49:20;;;;;;;;;;;;;;;21.69;100.00;95635.09;10502381;28;2086;-70
2023/06/11 09:54:23;;;;;;;;;;;;;;;21.94;100.00;95646.75;10523360;28;1871;-71
2023/06/11 09:59:25;;;;;;;;;;;;;;;22.96;96.85;95636.06;10508413;28;1966;-71
2023/06/11 10:04:28;;;;;;;;;;;;;;;22.90;97.83;95643.75;10502411;28;1787;-71
2023/06/11 10:09:30;;;;;;;;;;;;;;;22.81;94.98;95632.19;10509005;28;2302;-71
2023/06/11 10:14:32;;;;;;;;;;;;;;;22.89;97.42;95632.00;10510537;28;2151;-72
2023/06/11 10:19:36;;;;;;;;;;;;;;;22.60;100.00;95641.47;10513825;28;2064;-71
2023/06/11 10:24:38;;;;;;;;;;;;;;;23.04;93.42;95641.38;10505600;28;2031;-73
2023/06/11 10:29:40;;;;;;;;;;;;;;;22.53;96.68;95641.31;10515566;28;1867;-73
2023/06/11 10:34:43;;;;;;;;;;;;;;;22.93;92.31;95634.84;10511534;28;1898;-73
2023/06/11 10:39:46;;;;;;;;;;;;;;;22.87;94.49;95636.28;10510286;28;4721;-73
2023/06/11 10:44:48;;;;;;;;;;;;;;;23.55;87.43;95635.84;10497883;28;2041;-74
2023/06/11 10:49:51;;;;;;;;;;;;;;;24.92;75.13;95635.22;10512248;28;1919;-73
2023/06/11 10:54:53;;;;;;;;;;;;;;;23.77;77.90;95633.53;10509570;28;1923;-72
2023/06/11 10:59:56;;;;;;;;;;;;;;;23.52;74.94;95642.03;10507393;28;2016;-74
2023/06/11 11:04:59;;;;;;;;;;;;;;;23.54;74.57;95628.75;10509585;28;2201;-73
2023/06/11 11:10:02;;;;;;;;;;;;;;;24.41;71.75;95621.03;10502380;28;1960;-74
2023/06/11 11:15:04;;;;;;;;;;;;;;;23.92;73.03;95622.50;10508901;28;1943;-74
2023/06/11 11:20:08;;;;;;;;;;;;;;;24.28;71.69;95621.19;10503589;28;1948;-72
2023/06/11 11:25:21;;;;;;;;;;;;;;;24.24;66.93;95622.31;10510291;28;1916;-73
2023/06/11 11:30:28;;;;;;;;;;;;;;;23.88;67.78;95613.38;10503566;28;1911;-73
2023/06/11 11:35:31;;;;;;;;;;;;;;;24.24;66.89;95617.59;10503525;28;1863;-73
2023/06/11 11:40:33;;;;;;;;;;;;;;;24.09;69.72;95601.22;10502814;28;4693;-73
2023/06/11 11:45:36;;;;;;;;;;;;;;;23.83;70.16;95612.88;10507240;28;1898;-73
2023/06/11 11:50:40;;;;;;;;;;;;;;;23.32;74.76;95605.56;10505121;28;1929;-73
2023/06/11 11:55:43;;;;;;;;;;;;;;;24.01;72.41;95614.03;10506739;28;1774;-73
2023/06/11 12:01:08;;;;;;;;;;;;;;;23.75;69.22;95605.69;10506014;28;2075;-73
2023/06/11 12:06:14;;;;;;;;;;;;;;;23.69;72.75;95600.47;10504534;28;2022;-73
2023/06/11 12:11:17;;;;;;;;;;;;;;;23.76;70.22;95597.06;10500109;28;2000;-73
2023/06/11 12:16:20;;;;;;;;;;;;;;;23.72;70.56;95594.25;10507378;28;1912;-73
2023/06/11 12:21:23;;;;;;;;;;;;;;;23.58;69.53;95602.19;10501357;28;1960;-73
2023/06/11 12:26:27;;;;;;;;;;;;;;;24.00;68.60;95590.47;10503820;28;1910;-73
2023/06/11 12:31:30;;;;;;;;;;;;;;;23.49;61.21;95601.59;10506101;28;1930;-73
2023/06/11 12:36:34;;;;;;;;;;;;;;;23.62;59.32;95592.09;10502916;28;1863;-75
2023/06/11 12:41:38;;;;;;;;;;;;;;;24.17;60.89;95583.69;10501832;28;1951;-73
2023/06/11 12:46:50;;;;;;;;;;;;;;;23.81;61.91;95574.03;10505552;28;1922;-73
2023/06/11 12:51:53;;;;;;;;;;;;;;;23.50;61.09;95597.69;10501854;28;1911;-73
2023/06/11 12:56:56;;;;;;;;;;;;;;;23.03;64.41;95584.97;10500322;28;2740;-73
2023/06/11 13:01:58;;;;;;;;;;;;;;;23.71;60.36;95567.97;10509582;28;1989;-73
2023/06/11 13:07:02;;;;;;;;;;;;;;;24.40;53.28;95581.78;10510519;28;1951;-73
2023/06/11 13:12:08;;;;;;;;;;;;;;;24.27;52.62;95575.66;10503798;28;1931;-73
2023/06/11 13:17:11;;;;;;;;;;;;;;;24.15;47.01;95578.59;10514575;28;2018;-71
2023/06/11 13:22:16;;;;;;;;;;;;;;;24.12;43.97;95578.53;10512969;28;2065;-72
2023/06/11 13:27:19;;;;;;;;;;;;;;;24.24;44.97;95568.16;10514082;28;1856;-74
2023/06/11 13:32:23;;;;;;;;;;;;;;;24.25;48.27;95564.25;10513551;28;1882;-74
2023/06/11 13:37:27;;;;;;;;;;;;;;;24.93;47.69;95557.06;10513496;28;1909;-71
2023/06/11 13:42:33;;;;;;;;;;;;;;;24.57;48.69;95561.28;10504954;28;4738;-71
2023/06/11 13:47:36;;;;;;;;;;;;;;;23.66;47.27;95559.22;10514330;28;1919;-72
2023/06/11 13:52:39;;;;;;;;;;;;;;;24.11;45.86;95552.22;10506375;28;1922;-72
2023/06/11 13:57:42;;;;;;;;;;;;;;;24.66;44.71;95545.31;10512240;28;1985;-72
2023/06/11 14:02:44;;;;;;;;;;;;;;;24.73;42.16;95544.63;10502796;28;1921;-73
2023/06/11 14:07:48;;;;;;;;;;;;;;;25.25;42.55;95549.28;10502958;28;1907;-72
2023/06/11 14:12:51;;;;;;;;;;;;;;;24.79;43.45;95556.88;10507139;28;1906;-72
2023/06/11 14:17:53;;;;;;;;;;;;;;;24.09;44.75;95540.81;10505900;28;1878;-72
2023/06/11 14:22:56;;;;;;;;;;;;;;;24.15;43.05;95536.59;10503672;28;1898;-72
2023/06/11 14:27:59;;;;;;;;;;;;;;;24.68;41.10;95517.44;10504270;28;1820;-73
2023/06/11 14:33:02;;;;;;;;;;;;;;;25.10;39.02;95528.28;10511769;28;2195;-73
2023/06/11 14:38:05;;;;;;;;;;;;;;;25.09;36.86;95517.66;10506652;28;1907;-72
2023/06/11 14:43:08;;;;;;;;;;;;;;;25.21;39.55;95511.94;10505654;28;4729;-72
2023/06/11 14:48:11;;;;;;;;;;;;;;;24.89;40.37;95514.22;10510457;28;1968;-72
2023/06/11 14:53:14;;;;;;;;;;;;;;;25.16;40.52;95512.25;10507573;28;2299;-73
2023/06/11 14:58:16;;;;;;;;;;;;;;;25.92;40.61;95498.97;10507418;28;1949;-71
2023/06/11 15:03:20;;;;;;;;;;;;;;;24.92;42.46;95505.22;10499222;28;1888;-72
2023/06/11 15:08:23;;;;;;;;;;;;;;;24.73;41.87;95506.91;10499546;28;1953;-72
2023/06/11 15:13:26;;;;;;;;;;;;;;;25.01;43.03;95489.25;10506411;28;2043;-73
2023/06/11 15:18:28;;;;;;;;;;;;;;;25.17;46.00;95484.38;10500562;28;1918;-73
2023/06/11 15:23:31;;;;;;;;;;;;;;;25.14;42.70;95479.63;10506357;28;1840;-72
2023/06/11 15:28:33;;;;;;;;;;;;;;;24.92;45.79;95492.25;10508355;28;1867;-71
2023/06/11 15:33:38;;;;;;;;;;;;;;;25.49;45.44;95476.47;10504869;28;1880;-71
2023/06/11 15:38:41;;;;;;;;;;;;;;;25.64;43.76;95485.69;10479611;28;1930;-72
2023/06/11 15:43:43;;;;;;;;;;;;;;;24.98;44.58;95487.22;10500626;28;4698;-73
2023/06/11 15:48:46;;;;;;;;;;;;;;;24.90;42.51;95472.59;10503326;28;2344;-72
2023/06/11 15:53:50;;;;;;;;;;;;;;;24.60;44.25;95472.59;10510027;28;1931;-72
2023/06/11 15:58:52;;;;;;;;;;;;;;;24.87;45.56;95465.09;10502374;28;1985;-72
2023/06/11 16:03:55;;;;;;;;;;;;;;;24.64;45.04;95467.16;10484461;28;2117;-70
2023/06/11 16:09:00;;;;;;;;;;;;;;;24.68;47.58;95468.75;10494606;28;1913;-70
2023/06/11 16:14:03;;;;;;;;;;;;;;;23.97;51.58;95476.69;10504217;28;1879;-70
2023/06/11 16:19:06;;;;;;;;;;;;;;;23.83;51.89;95486.63;10499757;28;2166;-70
2023/06/11 16:24:09;;;;;;;;;;;;;;;23.72;52.64;95469.97;10500272;28;1971;-70
2023/06/11 16:29:12;;;;;;;;;;;;;;;23.44;48.74;95475.72;10505522;28;1896;-69
2023/06/11 16:34:15;;;;;;;;;;;;;;;23.60;49.21;95473.66;10511605;28;2009;-71
2023/06/11 16:39:18;;;;;;;;;;;;;;;23.72;50.90;95475.47;10505898;28;1951;-70
2023/06/11 16:44:33;;;;;;;;;;;;;;;23.43;53.46;95474.13;10512243;28;4777;-72
2023/06/11 16:49:36;;;;;;;;;;;;;;;23.26;55.01;95485.53;10513724;28;1946;-72
2023/06/11 16:54:38;;;;;;;;;;;;;;;23.05;53.68;95477.69;10511306;28;1843;-73
2023/06/11 16:59:41;;;;;;;;;;;;;;;22.95;54.65;95481.78;10511349;28;2111;-72
2023/06/11 17:04:44;;;;;;;;;;;;;;;22.87;55.66;95488.28;10511866;28;1899;-73
2023/06/11 17:09:47;;;;;;;;;;;;;;;22.85;57.13;95471.38;10514451;28;1872;-73
2023/06/11 17:14:50;;;;;;;;;;;;;;;22.84;57.49;95483.47;10508735;28;1960;-72
2023/06/11 17:19:55;;;;;;;;;;;;;;;22.83;58.62;95479.16;10512622;28;1995;-72
2023/06/11 17:24:58;;;;;;;;;;;;;;;22.75;59.72;95478.22;10495595;28;1907;-72
2023/06/11 17:30:00;;;;;;;;;;;;;;;22.76;60.62;95485.28;10513103;28;1855;-73
2023/06/11 17:35:02;;;;;;;;;;;;;;;22.68;59.50;95483.53;10509719;28;1879;-73
2023/06/11 17:40:05;;;;;;;;;;;;;;;22.53;60.15;95482.44;10512895;28;4704;-73
2023/06/11 17:45:07;;;;;;;;;;;;;;;22.44;61.84;95479.09;10510525;28;1906;-72
2023/06/11 17:50:10;;;;;;;;;;;;;;;22.39;63.11;95479.34;10506784;28;1912;-72
2023/06/11 17:55:14;;;;;;;;;;;;;;;22.28;64.65;95487.34;10507682;28;1958;-73
2023/06/11 18:00:16;;;;;;;;;;;;;;;22.19;66.48;95489.44;10515897;28;1957;-72
2023/06/11 18:05:19;;;;;;;;;;;;;;;22.20;66.11;95482.81;10506091;28;2014;-72
2023/06/11 18:10:21;;;;;;;;;;;;;;;22.09;66.52;95485.31;10507850;28;1884;-73
2023/06/11 18:15:23;;;;;;;;;;;;;;;22.00;66.81;95487.41;10511449;28;1772;-72
2023/06/11 18:20:38;;;;;;;;;;;;;;;21.89;68.64;95494.56;10514011;28;1961;-71
2023/06/11 18:25:41;;;;;;;;;;;;;;;21.72;71.17;95486.69;10509780;28;1888;-73
2023/06/11 18:30:44;;;;;;;;;;;;;;;21.57;73.66;95486.34;10503206;28;1888;-73
2023/06/11 18:35:47;;;;;;;;;;;;;;;21.46;74.06;95485.25;10507880;28;2283;-70
2023/06/11 18:40:49;;;;;;;;;;;;;;;21.35;75.41;95489.63;10504859;28;4591;-70
2023/06/11 18:45:52;;;;;;;;;;;;;;;21.18;78.56;95484.44;10506965;28;1951;-70
2023/06/11 18:50:55;;;;;;;;;;;;;;;21.05;80.08;95487.22;10503619;28;1856;-71
2023/06/11 18:55:58;;;;;;;;;;;;;;;20.90;81.16;95490.69;10510911;28;1871;-71
2023/06/11 19:01:01;;;;;;;;;;;;;;;20.72;83.64;95490.16;10509950;28;1971;-71
2023/06/11 19:06:03;;;;;;;;;;;;;;;20.63;85.19;95494.19;10509640;28;1898;-71
2023/06/11 19:11:06;;;;;;;;;;;;;;;20.46;86.73;95498.75;10506628;28;1960;-73
2023/06/11 19:16:09;;;;;;;;;;;;;;;20.32;88.81;95494.75;10512243;28;2149;-73
2023/06/11 19:21:11;;;;;;;;;;;;;;;20.15;90.72;95495.78;10520084;28;2058;-71
2023/06/11 19:26:15;;;;;;;;;;;;;;;20.00;92.52;95502.72;10501505;28;1943;-70
2023/06/11 19:31:18;;;;;;;;;;;;;;;19.87;94.33;95504.63;10502298;28;2630;-73
2023/06/11 19:36:20;;;;;;;;;;;;;;;19.79;95.46;95505.53;10505435;28;1935;-74
2023/06/11 19:41:26;;;;;;;;;;;;;;;19.61;97.37;95504.94;10503813;28;4766;-74
2023/06/11 19:46:34;;;;;;;;;;;;;;;19.40;100.00;95507.69;10502079;28;1932;-72
2023/06/11 19:51:39;;;;;;;;;;;;;;;19.43;100.00;95511.66;10509054;28;1906;-72
2023/06/11 19:56:43;;;;;;;;;;;;;;;19.30;100.00;95513.56;10506173;28;1943;-72
2023/06/11 20:01:45;;;;;;;;;;;;;;;19.20;100.00;95521.34;10500969;28;1931;-73
2023/06/11 20:06:48;;;;;;;;;;;;;;;19.12;100.00;95521.09;10510225;28;1906;-73
2023/06/11 20:11:53;;;;;;;;;;;;;;;19.11;100.00;95526.88;10503124;28;1935;-72
2023/06/11 20:16:56;;;;;;;;;;;;;;;19.05;100.00;95541.81;10507046;28;1894;-73
2023/06/11 20:22:00;;;;;;;;;;;;;;;18.98;100.00;95538.84;10497629;28;1976;-73
2023/06/11 20:27:03;;;;;;;;;;;;;;;18.87;100.00;95541.16;10503442;28;2200;-71
2023/06/11 20:32:05;;;;;;;;;;;;;;;18.77;100.00;95541.56;10509433;28;1896;-73
2023/06/11 20:37:08;;;;;;;;;;;;;;;18.65;100.00;95542.25;10505739;28;1873;-72
2023/06/11 20:42:11;;;;;;;;;;;;;;;18.53;100.00;95545.69;10506204;28;4733;-73
2023/06/11 20:47:13;;;;;;;;;;;;;;;18.51;100.00;95549.84;10511113;28;1967;-72
2023/06/11 20:52:17;;;;;;;;;;;;;;;18.45;100.00;95549.28;10507200;28;1977;-72
2023/06/11 20:57:23;;;;;;;;;;;;;;;18.36;100.00;95545.78;10513765;28;1598;-72
2023/06/11 21:02:26;;;;;;;;;;;;;;;18.26;100.00;95546.97;10514966;28;1906;-72
2023/06/11 21:07:29;;;;;;;;;;;;;;;18.15;100.00;95551.19;10509013;28;1884;-72
2023/06/11 21:12:36;;;;;;;;;;;;;;;18.05;100.00;95552.31;10505449;28;1954;-73
2023/06/11 21:17:39;;;;;;;;;;;;;;;18.00;100.00;95552.50;10509112;28;1900;-72
2023/06/11 21:22:42;;;;;;;;;;;;;;;17.94;100.00;95551.09;10507462;28;1969;-72
2023/06/11 21:27:44;;;;;;;;;;;;;;;17.85;100.00;95544.09;10511368;28;2208;-72
2023/06/11 21:32:47;;;;;;;;;;;;;;;17.85;100.00;95544.09;10513265;28;1930;-72
2023/06/11 21:37:50;;;;;;;;;;;;;;;17.77;100.00;95546.53;10509462;28;1864;-72
2023/06/11 21:42:52;;;;;;;;;;;;;;;17.65;100.00;95540.13;10506801;28;4765;-72
2023/06/11 21:47:55;;;;;;;;;;;;;;;17.55;100.00;95539.34;10507952;28;1911;-72
2023/06/11 21:52:59;;;;;;;;;;;;;;;17.45;100.00;95538.91;10512294;28;1825;-72
2023/06/11 21:58:04;;;;;;;;;;;;;;;17.29;100.00;95542.09;10507627;28;1927;-72
2023/06/11 22:03:06;;;;;;;;;;;;;;;17.23;100.00;95543.38;10513814;28;1980;-72
2023/06/11 22:08:09;;;;;;;;;;;;;;;17.19;100.00;95552.50;10515554;28;1856;-72
2023/06/11 22:13:12;;;;;;;;;;;;;;;17.09;100.00;95542.75;10494426;28;2064;-72
2023/06/11 22:18:14;;;;;;;;;;;;;;;16.97;100.00;95545.31;10509549;28;1891;-71
2023/06/11 22:23:17;;;;;;;;;;;;;;;16.85;100.00;95545.16;10508155;28;2612;-71
2023/06/11 22:28:20;;;;;;;;;;;;;;;16.73;100.00;95545.78;10512525;28;1853;-71
2023/06/11 22:33:23;;;;;;;;;;;;;;;16.65;100.00;95544.63;10509339;28;1926;-73
2023/06/11 22:38:25;;;;;;;;;;;;;;;16.64;100.00;95543.03;10507458;28;1852;-71
2023/06/11 22:43:28;;;;;;;;;;;;;;;16.55;100.00;95544.16;10510926;28;4781;-73
2023/06/11 22:48:30;;;;;;;;;;;;;;;16.47;100.00;95543.00;10510590;28;1949;-72
2023/06/11 22:53:33;;;;;;;;;;;;;;;16.44;100.00;95543.66;10514007;28;1875;-73
2023/06/11 22:58:36;;;;;;;;;;;;;;;16.37;100.00;95543.31;10508805;28;1915;-72
2023/06/11 23:03:38;;;;;;;;;;;;;;;16.30;100.00;95543.78;10508448;28;1898;-72
2023/06/11 23:08:41;;;;;;;;;;;;;;;16.26;100.00;95531.94;10505140;28;1876;-72
2023/06/11 23:13:43;;;;;;;;;;;;;;;16.19;100.00;95532.41;10506380;28;2002;-72
2023/06/11 23:18:51;;;;;;;;;;;;;;;16.13;100.00;95525.53;10507460;28;2399;-72
2023/06/11 23:23:53;;;;;;;;;;;;;;;16.07;100.00;95534.94;10503475;28;1962;-71
2023/06/11 23:28:56;;;;;;;;;;;;;;;16.03;100.00;95528.56;10507407;28;1860;-72
2023/06/11 23:33:59;;;;;;;;;;;;;;;15.94;100.00;95520.38;10508868;28;1902;-71
2023/06/11 23:39:03;;;;;;;;;;;;;;;15.87;100.00;95524.66;10505282;28;2084;-72
2023/06/11 23:44:06;;;;;;;;;;;;;;;15.83;100.00;95512.81;10511227;28;4777;-72
2023/06/11 23:49:09;;;;;;;;;;;;;;;15.77;100.00;95514.06;10501214;28;1956;-72
2023/06/11 23:54:14;;;;;;;;;;;;;;;15.68;100.00;95520.28;10498483;28;1990;-71
2023/06/11 23:59:16;;;;;;;;;;;;;;;15.60;100.00;95515.59;10509070;28;1884;-72
